createdAt,value
2022-11-18T00:01:32.271Z,5.60
2022-11-18T00:04:01.127Z,5.38
2022-11-18T00:06:31.193Z,5.90
2022-11-18T00:09:02.104Z,5.30
2022-11-18T00:11:48.756Z,5.40
2022-11-18T00:14:20.579Z,5.20
2022-11-18T00:16:51.171Z,5.25
2022-11-18T00:19:20.438Z,5.22
2022-11-18T00:21:49.452Z,4.90
2022-11-18T00:24:19.512Z,4.43
2022-11-18T00:26:48.500Z,4.15
2022-11-18T00:29:18.099Z,5.43
2022-11-18T00:31:46.793Z,4.38
2022-11-18T00:34:17.647Z,3.70
2022-11-18T00:36:46.726Z,4.03
2022-11-18T00:39:19.656Z,4.53
2022-11-18T00:42:12.186Z,4.30
2022-11-18T00:44:40.936Z,3.92
2022-11-18T00:47:09.444Z,4.47
2022-11-18T00:49:37.703Z,4.15
2022-11-18T00:52:06.568Z,4.32
2022-11-18T00:54:36.196Z,3.60
2022-11-18T00:57:05.357Z,3.55
2022-11-18T00:59:34.021Z,4.43
2022-11-18T01:02:02.246Z,4.18
2022-11-18T01:04:30.964Z,4.28
2022-11-18T01:06:59.215Z,4.38
2022-11-18T01:09:27.720Z,4.75
2022-11-18T01:12:14.837Z,4.47
2022-11-18T01:14:43.544Z,3.90
2022-11-18T01:17:11.839Z,5.82
2022-11-18T01:19:40.495Z,5.15
2022-11-18T01:22:09.043Z,4.32
2022-11-18T01:24:37.728Z,4.80
2022-11-18T01:27:07.624Z,4.05
2022-11-18T01:29:37.151Z,4.20
2022-11-18T01:32:23.896Z,4.70
2022-11-18T01:34:53.376Z,3.97
2022-11-18T01:37:21.943Z,4.18
2022-11-18T01:39:50.572Z,3.80
2022-11-18T01:42:20.205Z,3.42
2022-11-18T01:45:02.119Z,3.60
2022-11-18T01:47:36.333Z,4.47
2022-11-18T01:50:06.443Z,3.72
2022-11-18T01:52:36.386Z,3.80
2022-11-18T01:55:11.873Z,4.25
2022-11-18T01:57:43.240Z,4.05
2022-11-18T02:00:13.816Z,3.83
2022-11-18T02:02:42.876Z,3.38
2022-11-18T02:05:12.780Z,3.25
2022-11-18T02:07:44.476Z,3.55
2022-11-18T02:10:25.060Z,4.10
2022-11-18T02:12:56.398Z,3.58
2022-11-18T02:15:39.919Z,4.05
2022-11-18T02:18:19.333Z,4.53
2022-11-18T02:20:51.268Z,3.53
2022-11-18T02:24:02.832Z,4.25
2022-11-18T02:27:18.795Z,4.00
2022-11-18T02:29:56.622Z,3.47
2022-11-18T02:32:31.365Z,3.72
2022-11-18T02:37:38.909Z,2.92
2022-11-18T02:40:15.148Z,3.38
2022-11-18T02:42:46.728Z,3.80
2022-11-18T02:45:20.063Z,3.42
2022-11-18T02:47:51.219Z,3.53
2022-11-18T02:50:25.508Z,3.70
2022-11-18T02:52:59.239Z,3.13
2022-11-18T02:55:31.640Z,3.67
2022-11-18T02:58:00.374Z,3.70
2022-11-18T03:00:30.018Z,4.20
2022-11-18T03:02:58.572Z,4.10
2022-11-18T03:05:37.247Z,4.40
2022-11-18T03:08:13.948Z,4.15
2022-11-18T03:10:50.830Z,3.38
2022-11-18T03:13:27.170Z,4.07
2022-11-18T03:16:04.109Z,4.60
2022-11-18T03:18:43.616Z,4.78
2022-11-18T03:21:18.360Z,4.05
2022-11-18T03:26:26.552Z,2.92
2022-11-18T03:29:00.763Z,3.63
2022-11-18T03:31:37.348Z,4.15
2022-11-18T03:34:12.037Z,4.43
2022-11-18T03:36:51.275Z,4.68
2022-11-18T03:39:23.167Z,4.15
2022-11-18T03:41:57.834Z,4.13
2022-11-18T03:44:32.536Z,3.75
2022-11-18T03:49:41.653Z,2.97
2022-11-18T03:52:16.774Z,4.38
2022-11-18T03:54:47.952Z,4.65
2022-11-18T03:57:22.641Z,4.63
2022-11-18T04:02:27.061Z,4.30
2022-11-18T04:04:58.966Z,4.38
2022-11-18T04:07:34.077Z,3.72
2022-11-18T04:10:09.963Z,4.22
2022-11-18T04:12:46.474Z,3.88
2022-11-18T04:15:15.368Z,4.95
2022-11-18T04:17:45.033Z,5.45
2022-11-18T04:20:18.603Z,5.55
2022-11-18T04:22:47.540Z,4.55
2022-11-18T04:25:16.483Z,4.88
2022-11-18T04:27:45.172Z,5.07
2022-11-18T04:30:14.656Z,5.38
2022-11-18T04:32:44.629Z,5.07
2022-11-18T04:35:13.187Z,4.70
2022-11-18T04:37:41.737Z,5.43
2022-11-18T04:40:11.659Z,6.07
2022-11-18T04:42:40.240Z,5.57
2022-11-18T04:45:10.593Z,5.65
2022-11-18T04:47:39.562Z,6.97
2022-11-18T04:50:10.327Z,5.70
2022-11-18T04:52:38.932Z,5.28
2022-11-18T04:55:08.023Z,5.68
2022-11-18T04:57:36.579Z,7.30
2022-11-18T05:00:07.069Z,5.63
2022-11-18T05:02:35.373Z,5.40
2022-11-18T05:05:04.131Z,5.22
2022-11-18T05:07:33.822Z,6.70
2022-11-18T05:10:02.942Z,7.20
2022-11-18T05:12:48.925Z,5.50
2022-11-18T05:15:18.033Z,8.93
2022-11-18T05:17:46.683Z,6.82
2022-11-18T05:20:15.319Z,6.15
2022-11-18T05:22:44.913Z,7.95
2022-11-18T05:25:13.178Z,7.05
2022-11-18T05:27:41.683Z,7.80
2022-11-18T05:30:11.826Z,9.18
2022-11-18T05:32:40.438Z,6.80
2022-11-18T05:35:09.732Z,6.32
2022-11-18T05:37:38.292Z,5.75
2022-11-18T05:40:10.626Z,5.05
2022-11-18T05:42:59.191Z,3.15
2022-11-18T05:45:27.740Z,3.00
2022-11-18T05:48:03.981Z,2.63
2022-11-18T05:50:34.014Z,1.70
2022-11-18T05:53:03.504Z,1.92
2022-11-18T05:55:40.758Z,1.52
2022-11-18T05:58:11.628Z,1.88
2022-11-18T06:00:40.353Z,1.83
2022-11-18T06:03:14.384Z,1.40
2022-11-18T06:05:43.332Z,1.33
2022-11-18T06:08:13.513Z,1.80
2022-11-18T06:10:44.977Z,2.10
2022-11-18T06:13:21.378Z,2.13
2022-11-18T06:15:50.286Z,2.60
2022-11-18T06:18:23.287Z,1.45
2022-11-18T06:20:54.084Z,1.95
2022-11-18T06:23:22.895Z,1.38
2022-11-18T06:25:52.720Z,1.40
2022-11-18T06:28:22.615Z,1.20
2022-11-18T06:30:51.272Z,1.20
2022-11-18T06:33:19.869Z,1.20
2022-11-18T06:35:48.392Z,1.00
2022-11-18T06:38:16.877Z,0.90
2022-11-18T06:40:45.528Z,0.85
2022-11-18T06:43:32.912Z,0.90
2022-11-18T06:46:20.294Z,0.80
2022-11-18T06:48:49.151Z,0.60
2022-11-18T06:51:17.692Z,1.00
2022-11-18T06:53:46.540Z,1.00
2022-11-18T06:56:17.178Z,0.90
2022-11-18T06:58:47.633Z,1.60
2022-11-18T07:01:18.691Z,1.50
2022-11-18T07:03:48.162Z,1.20
2022-11-18T07:06:18.704Z,1.05
2022-11-18T07:08:47.259Z,1.80
2022-11-18T07:11:18.545Z,1.20
2022-11-18T07:13:48.683Z,1.67
2022-11-18T07:16:19.232Z,1.48
2022-11-18T07:18:49.453Z,1.30
2022-11-18T07:21:19.981Z,1.10
2022-11-18T07:23:49.005Z,1.60
2022-11-18T07:26:17.747Z,1.92
2022-11-18T07:28:47.872Z,1.30
2022-11-18T07:31:18.308Z,1.38
2022-11-18T07:33:48.340Z,1.30
2022-11-18T07:36:19.309Z,1.05
2022-11-18T07:38:47.991Z,1.30
2022-11-18T07:41:18.548Z,1.20
2022-11-18T07:43:48.634Z,1.52
2022-11-18T07:46:19.834Z,1.00
2022-11-18T07:48:50.410Z,1.48
2022-11-18T07:51:20.745Z,1.42
2022-11-18T07:53:49.120Z,1.30
2022-11-18T07:56:18.354Z,1.20
2022-11-18T07:58:48.491Z,1.70
2022-11-18T08:01:19.610Z,2.25
2022-11-18T08:03:48.904Z,1.80
2022-11-18T08:06:20.107Z,1.50
2022-11-18T08:08:49.170Z,1.13
2022-11-18T08:11:22.905Z,1.90
2022-11-18T08:13:53.083Z,2.15
2022-11-18T08:16:23.571Z,1.70
2022-11-18T08:18:53.176Z,2.25
2022-11-18T08:21:23.836Z,2.05
2022-11-18T08:23:53.031Z,1.30
2022-11-18T08:26:22.095Z,1.30
2022-11-18T08:28:52.387Z,1.17
2022-11-18T08:31:24.365Z,1.80
2022-11-18T08:33:56.966Z,1.98
2022-11-18T08:36:28.987Z,1.75
2022-11-18T08:38:57.963Z,1.10
2022-11-18T08:41:32.929Z,1.77
2022-11-18T08:44:03.804Z,1.13
2022-11-18T08:46:32.431Z,1.80
2022-11-18T08:49:01.495Z,1.48
2022-11-18T08:51:30.440Z,1.60
2022-11-18T08:53:59.106Z,1.50
2022-11-18T08:56:27.728Z,1.23
2022-11-18T08:58:57.054Z,1.45
2022-11-18T09:01:27.315Z,1.30
2022-11-18T09:03:57.613Z,2.47
2022-11-18T09:06:26.604Z,2.17
2022-11-18T09:08:55.425Z,1.90
2022-11-18T09:11:25.800Z,1.95
2022-11-18T09:16:45.809Z,2.42
2022-11-18T09:19:45.580Z,2.53
2022-11-18T09:22:04.893Z,1.90
2022-11-18T09:24:34.015Z,1.67
2022-11-18T09:27:05.263Z,1.95
2022-11-18T09:29:34.195Z,2.47
2022-11-18T09:32:03.820Z,2.42
2022-11-18T09:34:32.322Z,2.63
2022-11-18T09:37:00.857Z,2.38
2022-11-18T09:39:29.402Z,2.17
2022-11-18T09:42:15.842Z,2.75
2022-11-18T09:45:00.956Z,4.43
2022-11-18T09:47:33.304Z,4.10
2022-11-18T09:50:26.852Z,5.18
2022-11-18T09:53:07.725Z,7.00
2022-11-18T09:55:39.929Z,5.82
2022-11-18T09:58:08.873Z,4.50
2022-11-18T10:00:37.161Z,3.03
2022-11-18T10:03:12.712Z,2.70
2022-11-18T10:05:49.438Z,4.07
2022-11-18T10:08:28.942Z,1.98
2022-11-18T10:11:08.481Z,2.92
2022-11-18T10:13:52.497Z,3.25
2022-11-18T10:16:37.479Z,2.90
2022-11-18T10:19:23.553Z,3.20
2022-11-18T10:22:16.779Z,3.13
2022-11-18T10:24:52.428Z,3.05
2022-11-18T10:27:21.729Z,4.10
2022-11-18T10:29:54.988Z,3.20
2022-11-18T10:32:23.636Z,4.25
2022-11-18T10:34:56.593Z,4.13
2022-11-18T10:37:45.747Z,2.85
2022-11-18T10:40:27.805Z,2.58
2022-11-18T10:42:56.600Z,2.55
2022-11-18T10:45:28.731Z,3.60
2022-11-18T10:48:03.842Z,3.50
2022-11-18T10:50:39.191Z,3.25
2022-11-18T10:53:31.082Z,3.83
2022-11-18T10:56:01.058Z,3.50
2022-11-18T10:58:31.945Z,4.13
2022-11-18T11:01:08.164Z,3.92
2022-11-18T11:03:39.018Z,3.20
2022-11-18T11:06:38.092Z,3.80
2022-11-18T11:09:11.345Z,3.97
2022-11-18T11:11:43.491Z,3.47
2022-11-18T11:14:24.763Z,2.97
2022-11-18T11:17:02.697Z,4.40
2022-11-18T11:19:41.893Z,3.33
2022-11-18T11:22:13.271Z,3.15
2022-11-18T11:24:41.935Z,4.22
2022-11-18T11:30:45.291Z,3.10
2022-11-18T11:33:31.043Z,3.22
2022-11-18T11:36:21.693Z,4.05
2022-11-18T11:39:04.846Z,3.53
2022-11-18T11:41:46.515Z,3.03
2022-11-18T11:44:33.121Z,3.55
2022-11-18T11:47:36.469Z,3.65
2022-11-18T11:50:17.909Z,3.42
2022-11-18T11:53:02.954Z,2.45
2022-11-18T11:55:50.779Z,3.60
2022-11-18T11:58:38.140Z,3.20
2022-11-18T12:01:20.135Z,3.58
2022-11-18T12:03:53.160Z,2.97
2022-11-18T12:06:21.730Z,2.88
2022-11-18T12:09:04.970Z,3.28
2022-11-18T12:11:42.348Z,2.50
2022-11-18T12:14:27.307Z,2.22
2022-11-18T12:17:06.329Z,2.88
2022-11-18T12:19:40.238Z,2.90
2022-11-18T12:22:08.847Z,2.10
2022-11-18T12:24:42.351Z,2.88
2022-11-18T12:27:38.650Z,3.55
2022-11-18T12:30:19.653Z,0.90
2022-11-18T12:32:48.395Z,0.60
2022-11-18T12:35:27.902Z,0.82
2022-11-18T12:38:03.182Z,0.60
2022-11-18T12:40:47.403Z,0.80
2022-11-18T12:44:06.239Z,0.60
2022-11-18T12:46:56.799Z,0.75
2022-11-18T12:50:12.606Z,0.50
2022-11-18T12:52:53.452Z,1.13
2022-11-18T12:55:32.963Z,1.50
2022-11-18T12:58:01.582Z,1.42
2022-11-18T13:00:52.389Z,1.52
2022-11-18T13:03:28.705Z,0.90
2022-11-18T13:06:13.907Z,0.90
2022-11-18T13:11:34.520Z,0.77
2022-11-18T13:14:23.847Z,0.90
2022-11-18T13:17:11.154Z,1.00
2022-11-18T13:19:39.828Z,1.30
2022-11-18T13:22:36.868Z,1.25
2022-11-18T13:25:05.459Z,0.93
2022-11-18T13:27:50.984Z,1.27
2022-11-18T13:30:19.909Z,0.88
2022-11-18T13:32:50.731Z,1.70
2022-11-18T13:35:22.224Z,2.20
2022-11-18T13:37:53.745Z,2.33
2022-11-18T13:40:24.693Z,2.28
2022-11-18T13:42:53.114Z,1.58
2022-11-18T13:45:24.367Z,1.30
2022-11-18T13:48:00.663Z,1.00
2022-11-18T13:50:34.511Z,1.08
2022-11-18T13:53:15.073Z,1.13
2022-11-18T13:55:50.844Z,1.52
2022-11-18T13:58:55.724Z,1.23
2022-11-18T14:01:25.908Z,1.35
2022-11-18T14:04:00.543Z,0.70
2022-11-18T14:06:30.948Z,1.40
2022-11-18T14:09:19.732Z,0.80
2022-11-18T14:12:01.597Z,0.90
2022-11-18T14:14:34.301Z,1.13
2022-11-18T14:17:18.215Z,1.13
2022-11-18T14:19:49.891Z,1.00
2022-11-18T14:22:21.195Z,0.95
2022-11-18T14:24:57.684Z,1.23
2022-11-18T14:27:40.797Z,1.00
2022-11-18T14:30:36.579Z,1.10
2022-11-18T14:33:17.983Z,1.98
2022-11-18T14:35:52.175Z,1.20
2022-11-18T14:41:16.313Z,1.88
2022-11-18T14:43:45.978Z,1.55
2022-11-18T14:46:19.574Z,2.22
2022-11-18T14:48:48.458Z,1.17
2022-11-18T14:51:18.460Z,1.50
2022-11-18T14:53:46.991Z,2.05
2022-11-18T14:56:21.196Z,1.65
2022-11-18T14:58:50.074Z,1.90
2022-11-18T15:01:18.728Z,1.52
2022-11-18T15:03:47.625Z,1.30
2022-11-18T15:06:20.138Z,1.13
2022-11-18T15:08:50.958Z,1.42
2022-11-18T15:11:20.100Z,2.05
2022-11-18T15:13:50.317Z,1.52
2022-11-18T15:16:21.552Z,1.83
2022-11-18T15:18:52.167Z,1.23
2022-11-18T15:21:22.169Z,1.88
2022-11-18T15:23:50.820Z,1.73
2022-11-18T15:26:22.809Z,2.47
2022-11-18T15:28:54.039Z,2.45
2022-11-18T15:31:23.815Z,2.13
2022-11-18T15:33:52.934Z,2.40
2022-11-18T15:36:25.091Z,1.88
2022-11-18T15:38:55.156Z,2.50
2022-11-18T15:41:26.399Z,2.72
2022-11-18T15:43:56.762Z,2.35
2022-11-18T15:46:27.497Z,2.22
2022-11-18T15:48:57.781Z,2.17
2022-11-18T15:51:30.037Z,2.28
2022-11-18T15:53:59.056Z,3.10
2022-11-18T15:56:30.039Z,1.70
2022-11-18T15:59:00.637Z,2.13
2022-11-18T16:01:32.033Z,2.50
2022-11-18T16:04:00.749Z,1.83
2022-11-18T16:06:30.339Z,1.90
2022-11-18T16:09:00.527Z,2.25
2022-11-18T16:11:47.697Z,2.10
2022-11-18T16:14:18.654Z,2.13
2022-11-18T16:16:50.019Z,3.10
2022-11-18T16:19:21.028Z,2.55
2022-11-18T16:21:53.355Z,2.10
2022-11-18T16:24:23.542Z,2.08
2022-11-18T16:26:52.061Z,2.65
2022-11-18T16:29:21.125Z,1.83
2022-11-18T16:31:52.399Z,2.40
2022-11-18T16:34:22.994Z,2.58
2022-11-18T16:36:54.669Z,2.67
2022-11-18T16:39:25.714Z,3.85
2022-11-18T16:41:56.995Z,2.60
2022-11-18T16:44:28.202Z,1.90
2022-11-18T16:46:58.110Z,2.25
2022-11-18T16:49:28.537Z,2.25
2022-11-18T16:51:58.929Z,2.85
2022-11-18T16:54:28.705Z,3.30
2022-11-18T16:57:00.031Z,3.78
2022-11-18T16:59:30.261Z,3.13
2022-11-18T17:02:00.930Z,2.90
2022-11-18T17:04:30.820Z,3.50
2022-11-18T17:07:00.688Z,3.75
2022-11-18T17:09:29.411Z,3.72
2022-11-18T17:11:59.556Z,3.92
2022-11-18T17:14:29.903Z,3.60
2022-11-18T17:16:58.748Z,3.20
2022-11-18T17:19:27.224Z,3.22
2022-11-18T17:21:56.158Z,3.83
2022-11-18T17:24:27.018Z,3.25
2022-11-18T17:26:56.398Z,3.13
2022-11-18T17:29:24.592Z,2.72
2022-11-18T17:31:53.770Z,3.05
2022-11-18T17:34:22.442Z,2.90
2022-11-18T17:36:50.905Z,2.58
2022-11-18T17:39:20.780Z,3.55
2022-11-18T17:42:08.455Z,3.30
2022-11-18T17:44:37.192Z,3.80
2022-11-18T17:47:05.804Z,4.63
2022-11-18T17:49:34.461Z,5.07
2022-11-18T17:52:03.008Z,5.82
2022-11-18T17:54:31.217Z,3.80
2022-11-18T17:57:00.806Z,4.88
2022-11-18T17:59:29.369Z,3.72
2022-11-18T18:01:59.744Z,3.05
2022-11-18T18:04:29.066Z,3.85
2022-11-18T18:06:57.690Z,3.97
2022-11-18T18:09:30.439Z,4.70
2022-11-18T18:12:20.817Z,3.83
2022-11-18T18:14:48.393Z,3.92
2022-11-18T18:17:17.002Z,4.28
2022-11-18T18:19:45.322Z,4.80
2022-11-18T18:22:13.591Z,4.93
2022-11-18T18:24:42.154Z,4.38
2022-11-18T18:27:11.854Z,5.90
2022-11-18T18:29:40.367Z,6.30
2022-11-18T18:32:08.882Z,7.50
2022-11-18T18:34:37.171Z,7.80
2022-11-18T18:37:05.674Z,7.95
2022-11-18T18:39:34.162Z,6.32
2022-11-18T18:42:03.570Z,4.78
2022-11-18T18:44:47.100Z,5.07
2022-11-18T18:47:15.741Z,5.05
2022-11-18T18:49:44.214Z,5.25
2022-11-18T18:52:12.497Z,4.63
2022-11-18T18:54:40.710Z,4.65
2022-11-18T18:57:09.187Z,4.53
2022-11-18T18:59:39.110Z,4.07
2022-11-18T19:02:07.989Z,4.47
2022-11-18T19:04:36.637Z,4.68
2022-11-18T19:07:05.200Z,4.80
2022-11-18T19:09:36.343Z,5.90
2022-11-18T19:12:23.227Z,6.35
2022-11-18T19:14:53.240Z,5.00
2022-11-18T19:17:21.593Z,5.63
2022-11-18T19:20:07.543Z,5.22
2022-11-18T19:22:36.691Z,4.70
2022-11-18T19:25:05.660Z,5.70
2022-11-18T19:27:38.600Z,5.05
2022-11-18T19:30:11.078Z,5.47
2022-11-18T19:32:40.321Z,5.10
2022-11-18T19:35:10.764Z,5.35
2022-11-18T19:37:39.415Z,5.57
2022-11-18T19:40:10.480Z,5.88
2022-11-18T19:42:39.514Z,7.05
2022-11-18T19:45:10.722Z,9.25
2022-11-18T19:47:39.293Z,8.65
2022-11-18T19:50:08.393Z,8.68
2022-11-18T19:52:36.698Z,8.50
2022-11-18T19:55:05.686Z,7.00
2022-11-18T19:57:33.956Z,5.70
2022-11-18T20:00:03.455Z,6.95
2022-11-18T20:02:40.319Z,5.63
2022-11-18T20:05:26.534Z,6.85
2022-11-18T20:07:56.536Z,6.65
2022-11-18T20:10:25.018Z,6.82
2022-11-18T20:12:53.544Z,8.32
2022-11-18T20:15:22.025Z,7.70
2022-11-18T20:17:51.601Z,7.35
2022-11-18T20:20:20.265Z,5.75
2022-11-18T20:22:48.817Z,5.57
2022-11-18T20:25:17.383Z,4.40
2022-11-18T20:27:46.185Z,4.75
2022-11-18T20:30:15.059Z,5.13
2022-11-18T20:32:45.891Z,4.72
2022-11-18T20:35:16.041Z,4.95
2022-11-18T20:37:44.617Z,5.15
2022-11-18T20:40:13.579Z,4.47
2022-11-18T20:42:59.524Z,4.93
2022-11-18T20:45:28.109Z,4.18
2022-11-18T20:47:56.607Z,4.85
2022-11-18T20:50:26.225Z,4.85
2022-11-18T20:52:54.711Z,5.97
2022-11-18T20:55:23.255Z,8.95
2022-11-18T20:57:51.850Z,7.20
2022-11-18T21:00:20.767Z,5.32
2022-11-18T21:02:49.327Z,3.75
2022-11-18T21:05:18.020Z,3.92
2022-11-18T21:07:49.056Z,3.70
2022-11-18T21:10:18.344Z,3.58
2022-11-18T21:13:00.826Z,3.97
2022-11-18T21:15:29.458Z,3.78
2022-11-18T21:17:58.343Z,4.30
2022-11-18T21:20:44.045Z,3.88
2022-11-18T21:23:14.229Z,4.97
2022-11-18T21:25:43.203Z,3.85
2022-11-18T21:28:11.448Z,3.72
2022-11-18T21:30:40.333Z,4.05
2022-11-18T21:33:08.701Z,4.65
2022-11-18T21:35:37.416Z,4.60
2022-11-18T21:38:06.165Z,4.43
2022-11-18T21:40:35.770Z,3.80
2022-11-18T21:43:04.256Z,3.78
2022-11-18T21:45:33.019Z,3.55
2022-11-18T21:48:01.580Z,3.25
2022-11-18T21:50:30.086Z,2.63
2022-11-18T21:52:58.627Z,3.28
2022-11-18T21:55:27.160Z,2.40
2022-11-18T21:57:59.924Z,1.90
2022-11-18T22:00:31.506Z,1.40
2022-11-18T22:03:00.078Z,2.25
2022-11-18T22:05:29.351Z,2.05
2022-11-18T22:07:57.910Z,2.10
2022-11-18T22:10:26.555Z,2.50
2022-11-18T22:12:56.404Z,2.70
2022-11-18T22:15:25.121Z,2.20
2022-11-18T22:17:53.627Z,2.30
2022-11-18T22:20:22.195Z,2.38
2022-11-18T22:22:50.704Z,2.53
2022-11-18T22:25:19.306Z,2.70
2022-11-18T22:27:47.804Z,2.67
2022-11-18T22:30:18.008Z,3.00
2022-11-18T22:32:46.326Z,3.67
2022-11-18T22:35:14.906Z,3.42
2022-11-18T22:37:43.193Z,2.95
2022-11-18T22:40:13.258Z,3.60
2022-11-18T22:42:49.453Z,3.47
2022-11-18T22:45:19.247Z,3.17
2022-11-18T22:47:47.499Z,3.33
2022-11-18T22:50:16.461Z,3.50
2022-11-18T22:52:45.023Z,3.35
2022-11-18T22:55:13.626Z,3.22
2022-11-18T22:57:44.093Z,3.08
2022-11-18T23:00:14.548Z,2.28
2022-11-18T23:02:44.084Z,2.05
2022-11-18T23:05:12.625Z,2.67
2022-11-18T23:07:41.141Z,1.48
2022-11-18T23:10:10.384Z,1.52
2022-11-18T23:12:56.262Z,1.77
2022-11-18T23:15:24.531Z,1.88
2022-11-18T23:17:54.107Z,1.50
2022-11-18T23:20:22.642Z,0.98
2022-11-18T23:22:50.987Z,1.35
2022-11-18T23:25:19.616Z,1.83
2022-11-18T23:27:51.668Z,1.75
2022-11-18T23:30:23.306Z,1.27
2022-11-18T23:32:55.519Z,1.85
2022-11-18T23:35:24.484Z,1.35
2022-11-18T23:37:53.916Z,1.67
2022-11-18T23:40:22.551Z,1.75
2022-11-18T23:42:51.096Z,2.55
2022-11-18T23:45:19.702Z,2.28
2022-11-18T23:47:48.259Z,2.35
2022-11-18T23:50:18.246Z,2.05
2022-11-18T23:52:46.749Z,2.10
2022-11-18T23:55:15.284Z,2.58
2022-11-18T23:57:43.612Z,2.20
